Time;durP1;ratioP1;P1;durP2;ratioP2;P2;SDS_P1;SDS_P2;PMS_P1;PMS_P2;Temp;Humidity;BMP_temperature;BMP_pressure;BME280_temperature;BME280_humidity;BME280_pressure;Samples;Min_cycle;Max_cycle;Signal;HPM_P1;HPM_P2
2022/05/20 00:01:45;;;;;;;0.00;0.00;;;13.10;88.20;;;;;;5087458;28;20041;-69
2022/05/20 00:04:11;;;;;;;0.00;0.00;;;13.10;88.10;;;;;;5082518;28;20066;-69
2022/05/20 00:06:39;;;;;;;0.00;0.00;;;13.10;88.00;;;;;;5089269;28;20040;-69
2022/05/20 00:09:05;;;;;;;0.00;0.00;;;13.10;88.00;;;;;;5070125;28;20063;-70
2022/05/20 00:11:31;;;;;;;0.00;0.00;;;13.10;87.70;;;;;;5070628;28;20047;-69
2022/05/20 00:13:56;;;;;;;0.00;0.00;;;13.10;87.80;;;;;;5085148;28;20052;-69
2022/05/20 00:16:22;;;;;;;0.00;0.00;;;13.10;87.80;;;;;;5076475;28;20048;-69
2022/05/20 00:18:50;;;;;;;0.00;0.00;;;13.10;87.70;;;;;;5073506;28;20455;-69
2022/05/20 00:21:16;;;;;;;0.00;0.00;;;13.10;87.70;;;;;;5069803;28;20045;-69
2022/05/20 00:23:42;;;;;;;0.00;0.00;;;13.10;87.70;;;;;;5073512;28;20063;-69
2022/05/20 00:26:07;;;;;;;0.00;0.00;;;13.10;87.60;;;;;;5081133;28;20047;-69
2022/05/20 00:28:33;;;;;;;0.00;0.00;;;13.10;87.60;;;;;;5089102;28;20069;-69
2022/05/20 00:31:08;;;;;;;0.00;0.00;;;13.10;87.50;;;;;;5085358;28;20128;-70
2022/05/20 00:33:35;;;;;;;0.00;0.00;;;13.10;87.50;;;;;;5082319;28;20131;-70
2022/05/20 00:36:01;;;;;;;0.00;0.00;;;13.20;87.50;;;;;;5068480;28;20036;-69
2022/05/20 00:38:27;;;;;;;0.00;0.00;;;13.20;87.50;;;;;;5085005;28;20405;-69
2022/05/20 00:40:55;;;;;;;0.00;0.00;;;13.20;87.50;;;;;;5069664;28;20057;-69
2022/05/20 00:43:29;;;;;;;0.13;0.13;;;13.10;87.60;;;;;;5070740;28;20127;-70
2022/05/20 00:45:58;;;;;;;0.00;0.00;;;13.10;87.60;;;;;;5068200;28;20048;-70
2022/05/20 00:48:25;;;;;;;0.00;0.00;;;13.00;87.70;;;;;;5076449;28;20040;-70
2022/05/20 00:50:56;;;;;;;0.00;0.00;;;13.00;87.70;;;;;;5089948;28;20936;-69
2022/05/20 00:53:23;;;;;;;;;;;13.00;87.80;;;;;;5080071;28;20044;-69
2022/05/20 00:55:49;;;;;;;0.08;0.08;;;12.90;87.80;;;;;;5069466;28;19927;-69
2022/05/20 00:58:19;;;;;;;0.08;0.08;;;12.90;87.90;;;;;;5069976;28;20062;-69
2022/05/20 01:00:49;;;;;;;0.00;0.00;;;12.90;88.00;;;;;;5069135;28;20493;-68
2022/05/20 01:03:19;;;;;;;0.10;0.10;;;12.80;87.90;;;;;;5075502;28;20045;-68
2022/05/20 01:05:48;;;;;;;0.00;0.00;;;12.90;88.10;;;;;;5083331;28;20048;-69
2022/05/20 01:08:19;;;;;;;0.00;0.00;;;12.90;88.10;;;;;;5083587;28;20045;-70
2022/05/20 01:10:45;;;;;;;0.00;0.00;;;12.80;88.10;;;;;;5071227;28;20044;-70
2022/05/20 01:13:12;;;;;;;0.00;0.00;;;12.90;88.10;;;;;;5082853;28;20101;-69
2022/05/20 01:15:38;;;;;;;0.00;0.00;;;12.90;88.10;;;;;;5093585;28;20122;-69
2022/05/20 01:18:04;;;;;;;0.00;0.00;;;13.00;88.10;;;;;;5083573;28;20036;-69
2022/05/20 01:20:37;;;;;;;0.00;0.00;;;13.00;88.00;;;;;;5073302;28;20037;-69
2022/05/20 01:23:17;;;;;;;0.00;0.00;;;12.90;87.70;;;;;;5089774;28;20078;-69
2022/05/20 01:25:46;;;;;;;0.00;0.00;;;12.90;87.80;;;;;;5083497;28;20066;-69
2022/05/20 01:28:11;;;;;;;0.00;0.00;;;12.90;87.80;;;;;;5091366;28;20043;-69
2022/05/20 01:30:43;;;;;;;0.00;0.00;;;12.90;87.80;;;;;;5085113;28;20532;-69
2022/05/20 01:33:11;;;;;;;0.00;0.00;;;13.00;87.80;;;;;;5082997;28;20049;-69
2022/05/20 01:35:44;;;;;;;0.08;0.08;;;12.90;87.80;;;;;;5092084;28;20056;-70
2022/05/20 01:38:11;;;;;;;0.00;0.00;;;13.00;87.70;;;;;;5093039;28;20131;-69
2022/05/20 01:41:20;;;;;;;0.00;0.00;;;13.10;87.80;;;;;;5092013;28;20169;-69
2022/05/20 01:43:58;;;;;;;0.00;0.00;;;13.10;87.70;;;;;;5064061;28;20079;-70
2022/05/20 01:47:06;;;;;;;0.00;0.00;;;13.10;87.50;;;;;;5066111;28;20092;-69
2022/05/20 01:49:43;;;;;;;0.00;0.00;;;13.10;87.50;;;;;;5078783;28;20063;-69
2022/05/20 01:52:40;;;;;;;0.00;0.00;;;13.10;87.40;;;;;;5072451;28;20425;-70
2022/05/20 01:55:18;;;;;;;0.00;0.00;;;13.10;87.30;;;;;;5084346;28;20441;-69
2022/05/20 01:58:03;;;;;;;0.00;0.00;;;13.10;87.20;;;;;;5092813;28;20097;-69
2022/05/20 02:00:33;;;;;;;0.00;0.00;;;13.10;87.10;;;;;;5075703;28;20043;-69
2022/05/20 02:03:27;;;;;;;0.00;0.00;;;13.10;87.10;;;;;;5072470;28;20040;-69
2022/05/20 02:06:04;;;;;;;0.00;0.00;;;13.10;87.00;;;;;;5072857;28;20048;-68
2022/05/20 02:08:36;;;;;;;0.00;0.00;;;13.10;86.80;;;;;;5085708;28;20044;-69
2022/05/20 02:11:11;;;;;;;0.00;0.00;;;13.10;86.80;;;;;;5087724;28;20055;-69
2022/05/20 02:13:42;;;;;;;0.00;0.00;;;13.00;86.70;;;;;;5090631;28;20060;-68
2022/05/20 02:16:38;;;;;;;0.00;0.00;;;13.00;86.60;;;;;;5090779;28;20044;-69
2022/05/20 02:19:30;;;;;;;0.00;0.00;;;13.00;86.70;;;;;;5075432;28;20156;-69
2022/05/20 02:22:00;;;;;;;0.00;0.00;;;13.00;86.70;;;;;;5072124;28;20041;-69
2022/05/20 02:24:31;;;;;;;0.00;0.00;;;13.00;86.70;;;;;;5072418;28;20035;-69
2022/05/20 02:27:01;;;;;;;0.00;0.00;;;13.00;86.60;;;;;;5072568;28;20040;-69
2022/05/20 02:29:37;;;;;;;0.00;0.00;;;13.00;86.60;;;;;;5078228;28;20084;-69
2022/05/20 02:32:11;;;;;;;0.00;0.00;;;13.00;86.60;;;;;;5089080;28;20044;-70
2022/05/20 02:34:37;;;;;;;0.00;0.00;;;13.00;86.60;;;;;;5087395;28;20049;-69
2022/05/20 02:37:24;;;;;;;0.00;0.00;;;13.00;86.70;;;;;;5071962;28;20071;-69
2022/05/20 02:39:50;;;;;;;0.03;0.03;;;13.00;86.60;;;;;;5073736;28;20500;-69
2022/05/20 02:42:16;;;;;;;0.00;0.00;;;12.90;86.70;;;;;;5071728;28;20127;-69
2022/05/20 02:44:41;;;;;;;0.00;0.00;;;13.00;86.70;;;;;;5085118;28;20096;-68
2022/05/20 02:47:07;;;;;;;0.00;0.00;;;12.90;86.70;;;;;;5091616;28;20136;-69
2022/05/20 02:49:33;;;;;;;0.03;0.03;;;13.00;86.80;;;;;;5081143;28;20080;-69
2022/05/20 02:51:58;;;;;;;0.00;0.00;;;13.10;86.70;;;;;;5071616;28;20033;-69
2022/05/20 02:54:24;;;;;;;0.00;0.00;;;13.00;86.70;;;;;;5072930;28;20054;-69
2022/05/20 02:56:50;;;;;;;0.00;0.00;;;13.00;86.50;;;;;;5071110;28;20041;-69
2022/05/20 03:04:46;;;;;;;0.00;0.00;;;12.90;86.50;;;;;;5089685;28;20051;-69
2022/05/20 03:07:13;;;;;;;0.00;0.00;;;12.90;86.40;;;;;;5089799;28;20048;-69
2022/05/20 03:09:39;;;;;;;0.00;0.00;;;12.90;86.30;;;;;;5081891;28;20093;-69
2022/05/20 03:12:06;;;;;;;0.00;0.00;;;12.90;86.30;;;;;;5072603;28;20041;-69
2022/05/20 03:14:32;;;;;;;0.00;0.00;;;12.90;86.30;;;;;;5072947;28;20048;-69
2022/05/20 03:17:02;;;;;;;0.00;0.00;;;12.90;86.30;;;;;;5087606;28;20070;-69
2022/05/20 03:19:30;;;;;;;0.00;0.00;;;12.80;86.30;;;;;;5070973;28;20045;-69
2022/05/20 03:21:57;;;;;;;0.00;0.00;;;12.90;86.40;;;;;;5072803;28;20073;-69
2022/05/20 03:24:23;;;;;;;0.00;0.00;;;12.90;86.40;;;;;;5070792;28;20068;-69
2022/05/20 03:26:49;;;;;;;0.00;0.00;;;12.90;86.40;;;;;;5086582;28;20063;-69
2022/05/20 03:29:15;;;;;;;0.00;0.00;;;12.90;86.40;;;;;;5075637;28;20041;-69
2022/05/20 03:31:41;;;;;;;0.00;0.00;;;12.90;86.50;;;;;;5083961;28;20086;-69
2022/05/20 03:34:08;;;;;;;0.00;0.00;;;12.90;86.40;;;;;;5090120;28;20097;-69
2022/05/20 03:36:43;;;;;;;0.00;0.00;;;12.80;86.40;;;;;;5077761;28;20131;-68
2022/05/20 03:39:11;;;;;;;0.00;0.00;;;12.90;86.50;;;;;;5070358;28;20045;-69
2022/05/20 03:41:38;;;;;;;0.00;0.00;;;12.90;86.50;;;;;;5071462;28;20075;-69
2022/05/20 03:44:05;;;;;;;0.00;0.00;;;12.90;86.60;;;;;;5069071;28;20052;-68
2022/05/20 03:46:31;;;;;;;0.00;0.00;;;13.00;86.60;;;;;;5077576;28;20435;-69
2022/05/20 03:48:59;;;;;;;0.00;0.00;;;13.00;86.70;;;;;;5089450;28;20051;-69
2022/05/20 03:51:25;;;;;;;0.00;0.00;;;13.00;86.70;;;;;;5073386;28;20044;-68
2022/05/20 03:53:51;;;;;;;0.00;0.00;;;13.00;86.70;;;;;;5070650;28;20040;-69
2022/05/20 03:56:17;;;;;;;0.00;0.00;;;13.00;86.70;;;;;;5077936;28;20044;-69
2022/05/20 03:58:42;;;;;;;0.00;0.00;;;13.00;86.60;;;;;;5073683;28;20041;-68
2022/05/20 04:03:55;;;;;;;0.00;0.00;;;13.00;86.70;;;;;;5070651;28;20056;-69
2022/05/20 04:06:21;;;;;;;0.00;0.00;;;13.10;86.70;;;;;;5078183;28;20040;-69
2022/05/20 04:08:47;;;;;;;0.00;0.00;;;13.10;86.70;;;;;;5077992;28;20025;-70
2022/05/20 04:11:13;;;;;;;0.00;0.00;;;13.10;86.70;;;;;;5084517;28;20047;-69
2022/05/20 04:13:41;;;;;;;0.00;0.00;;;13.10;86.60;;;;;;5069906;28;20127;-69
2022/05/20 04:16:07;;;;;;;0.00;0.00;;;13.10;86.60;;;;;;5073015;28;20036;-69
2022/05/20 04:18:33;;;;;;;0.00;0.00;;;13.10;86.50;;;;;;5069904;28;20521;-68
2022/05/20 04:20:59;;;;;;;0.00;0.00;;;13.10;86.40;;;;;;5076000;28;20073;-69
2022/05/20 04:23:24;;;;;;;0.00;0.00;;;13.00;86.30;;;;;;5089995;28;20515;-68
2022/05/20 04:25:50;;;;;;;0.00;0.00;;;13.00;86.30;;;;;;5086030;28;20035;-68
2022/05/20 04:28:16;;;;;;;0.00;0.00;;;13.00;86.20;;;;;;5070482;28;20408;-68
2022/05/20 04:30:42;;;;;;;0.00;0.00;;;12.90;86.20;;;;;;5069590;28;20103;-69
2022/05/20 04:33:08;;;;;;;0.00;0.00;;;13.00;86.30;;;;;;5087896;28;20071;-69
2022/05/20 04:35:34;;;;;;;0.00;0.00;;;12.90;86.20;;;;;;5080535;28;20044;-69
2022/05/20 04:38:00;;;;;;;0.00;0.00;;;12.90;86.30;;;;;;5073351;28;20186;-68
2022/05/20 04:40:25;;;;;;;0.00;0.00;;;12.90;86.20;;;;;;5067907;28;20052;-68
2022/05/20 04:46:56;;;;;;;0.00;0.00;;;12.80;86.10;;;;;;5074858;28;20095;-68
2022/05/20 04:48:34;;;;;;;0.00;0.00;;;12.80;86.10;;;;;;5090032;28;21100;-69
2022/05/20 04:50:59;;;;;;;0.00;0.00;;;12.70;86.10;;;;;;5093155;28;20128;-68
2022/05/20 04:56:09;;;;;;;0.00;0.00;;;12.60;86.20;;;;;;5089508;28;20056;-68
2022/05/20 04:58:35;;;;;;;0.00;0.00;;;12.70;86.20;;;;;;5087822;28;20438;-68
2022/05/20 05:01:01;;;;;;;0.00;0.00;;;12.60;86.20;;;;;;5083337;28;20394;-68
2022/05/20 05:03:27;;;;;;;0.00;0.00;;;12.70;86.30;;;;;;5087775;28;20036;-68
2022/05/20 05:05:53;;;;;;;0.00;0.00;;;12.80;86.40;;;;;;5085352;28;20066;-68
2022/05/20 05:08:18;;;;;;;0.00;0.00;;;12.80;86.40;;;;;;5082491;28;20047;-68
2022/05/20 05:10:45;;;;;;;0.00;0.00;;;12.80;86.50;;;;;;5083556;28;20038;-68
2022/05/20 05:13:13;;;;;;;0.00;0.00;;;12.90;86.40;;;;;;5073531;28;20045;-68
2022/05/20 05:15:42;;;;;;;0.00;0.00;;;12.80;86.40;;;;;;5085984;28;20098;-68
2022/05/20 05:18:14;;;;;;;0.00;0.00;;;12.90;86.50;;;;;;5084794;28;20500;-68
2022/05/20 05:20:51;;;;;;;0.00;0.00;;;13.00;86.50;;;;;;5074165;28;20498;-68
2022/05/20 05:23:19;;;;;;;0.00;0.00;;;13.00;86.50;;;;;;5092880;28;20101;-69
2022/05/20 05:25:46;;;;;;;0.00;0.00;;;13.00;86.60;;;;;;5083168;28;20044;-68
2022/05/20 05:28:12;;;;;;;0.00;0.00;;;13.10;86.80;;;;;;5077802;28;20044;-69
2022/05/20 05:30:37;;;;;;;0.00;0.00;;;13.10;86.80;;;;;;5073138;28;20040;-68
2022/05/20 05:33:03;;;;;;;0.00;0.00;;;13.20;86.90;;;;;;5076431;28;20044;-69
2022/05/20 05:35:31;;;;;;;0.00;0.00;;;13.30;87.00;;;;;;5084762;28;20346;-68
2022/05/20 05:37:57;;;;;;;0.00;0.00;;;13.40;87.00;;;;;;5077462;28;20098;-68
2022/05/20 05:40:29;;;;;;;0.00;0.00;;;13.40;87.00;;;;;;5086266;28;20044;-68
2022/05/20 05:42:55;;;;;;;0.00;0.00;;;13.60;87.00;;;;;;5089930;28;20068;-68
2022/05/20 05:45:23;;;;;;;0.00;0.00;;;13.60;87.10;;;;;;5087236;28;20479;-68
2022/05/20 05:47:59;;;;;;;0.00;0.00;;;13.60;87.10;;;;;;5083038;28;20064;-68
2022/05/20 05:50:27;;;;;;;0.00;0.00;;;13.70;87.30;;;;;;5075858;28;20140;-68
2022/05/20 05:53:05;;;;;;;0.00;0.00;;;13.80;87.30;;;;;;5087749;28;20044;-68
2022/05/20 05:55:31;;;;;;;0.00;0.00;;;13.90;87.20;;;;;;5091243;28;20047;-68
2022/05/20 05:57:56;;;;;;;0.00;0.00;;;14.00;87.00;;;;;;5082529;28;20032;-68
2022/05/20 06:00:23;;;;;;;0.00;0.00;;;14.00;86.90;;;;;;5077467;28;20059;-68
2022/05/20 06:02:49;;;;;;;0.00;0.00;;;14.10;86.80;;;;;;5083916;28;20037;-69
2022/05/20 06:05:15;;;;;;;0.00;0.00;;;14.10;86.90;;;;;;5085575;28;20135;-68
2022/05/20 06:07:41;;;;;;;0.10;0.10;;;14.20;86.80;;;;;;5074261;28;20048;-68
2022/05/20 06:10:07;;;;;;;1.30;1.20;;;14.20;86.80;;;;;;5073361;28;20046;-69
2022/05/20 06:12:33;;;;;;;0.38;0.38;;;14.30;86.70;;;;;;5070950;28;20060;-68
2022/05/20 06:15:06;;;;;;;0.00;0.00;;;14.40;86.50;;;;;;5079913;28;20071;-69
2022/05/20 06:17:32;;;;;;;0.00;0.00;;;14.40;86.40;;;;;;5090828;28;20044;-68
2022/05/20 06:19:59;;;;;;;0.00;0.00;;;14.50;86.40;;;;;;5071374;28;20055;-68
2022/05/20 06:22:25;;;;;;;0.00;0.00;;;14.60;86.30;;;;;;5083678;28;20044;-68
2022/05/20 06:24:51;;;;;;;0.00;0.00;;;14.60;86.20;;;;;;5076686;28;20044;-68
2022/05/20 06:27:16;;;;;;;0.00;0.00;;;14.60;86.10;;;;;;5090048;28;20112;-69
2022/05/20 06:29:42;;;;;;;0.00;0.00;;;14.60;86.00;;;;;;5083368;28;20041;-68
2022/05/20 06:32:08;;;;;;;0.00;0.00;;;14.60;85.80;;;;;;5071233;28;20071;-68
2022/05/20 06:40:11;;;;;;;0.00;0.00;;;14.90;85.40;;;;;;5077164;28;20040;-67
2022/05/20 06:42:37;;;;;;;0.00;0.00;;;14.90;85.30;;;;;;5088268;28;20499;-67
2022/05/20 06:45:03;;;;;;;0.00;0.00;;;15.00;85.40;;;;;;5086524;28;20036;-67
2022/05/20 06:47:29;;;;;;;0.00;0.00;;;15.10;85.40;;;;;;5069261;28;20044;-68
2022/05/20 06:49:55;;;;;;;0.00;0.00;;;15.10;84.70;;;;;;5089095;28;20044;-66
2022/05/20 06:52:20;;;;;;;0.00;0.00;;;15.20;84.00;;;;;;5078217;28;20040;-66
2022/05/20 06:54:46;;;;;;;0.00;0.00;;;15.20;84.10;;;;;;5074751;28;20043;-66
2022/05/20 06:57:11;;;;;;;0.00;0.00;;;15.20;83.70;;;;;;5086455;28;20488;-66
2022/05/20 06:59:37;;;;;;;0.00;0.00;;;15.30;83.80;;;;;;5089406;28;20035;-66
2022/05/20 07:02:03;;;;;;;0.00;0.00;;;15.30;83.70;;;;;;5073996;28;20044;-66
2022/05/20 07:04:29;;;;;;;0.30;0.30;;;15.30;83.50;;;;;;5082188;28;20037;-67
2022/05/20 07:06:56;;;;;;;0.00;0.00;;;15.30;83.50;;;;;;5070494;28;20041;-67
2022/05/20 07:09:22;;;;;;;0.00;0.00;;;15.40;83.50;;;;;;5078924;28;20055;-67
2022/05/20 07:11:47;;;;;;;0.00;0.00;;;15.50;83.50;;;;;;5075820;28;20040;-67
2022/05/20 07:14:13;;;;;;;0.00;0.00;;;15.50;83.30;;;;;;5080585;28;20104;-67
2022/05/20 07:16:38;;;;;;;0.00;0.00;;;15.50;82.60;;;;;;5076660;28;20086;-66
2022/05/20 07:19:05;;;;;;;0.00;0.00;;;15.60;82.20;;;;;;5078613;28;20174;-66
2022/05/20 07:21:31;;;;;;;0.00;0.00;;;15.60;81.80;;;;;;5073590;28;20051;-66
2022/05/20 07:23:56;;;;;;;0.00;0.00;;;15.60;82.00;;;;;;5074243;28;20048;-67
2022/05/20 07:26:22;;;;;;;0.00;0.00;;;15.70;81.60;;;;;;5077049;28;20079;-67
2022/05/20 07:28:48;;;;;;;0.00;0.00;;;15.70;81.60;;;;;;5082408;28;20508;-66
2022/05/20 07:31:14;;;;;;;0.00;0.00;;;15.70;81.70;;;;;;5089871;28;20044;-66
2022/05/20 07:33:39;;;;;;;0.00;0.00;;;15.80;81.50;;;;;;5076754;28;20481;-66
2022/05/20 07:36:06;;;;;;;0.00;0.00;;;15.90;80.70;;;;;;5081986;28;20044;-66
2022/05/20 07:38:32;;;;;;;0.00;0.00;;;16.00;80.50;;;;;;5081512;28;20044;-67
2022/05/20 07:40:58;;;;;;;0.30;0.30;;;16.10;80.50;;;;;;5084197;28;20382;-66
2022/05/20 07:43:24;;;;;;;0.00;0.00;;;16.10;80.40;;;;;;5079954;28;20036;-66
2022/05/20 07:45:53;;;;;;;0.00;0.00;;;16.20;79.80;;;;;;5074779;28;20051;-67
2022/05/20 07:48:21;;;;;;;0.00;0.00;;;16.30;80.00;;;;;;5080982;28;20052;-65
2022/05/20 07:50:51;;;;;;;0.00;0.00;;;16.30;79.60;;;;;;5075563;28;20176;-66
2022/05/20 07:53:19;;;;;;;0.00;0.00;;;16.30;78.70;;;;;;5083077;28;20075;-66
2022/05/20 07:55:51;;;;;;;0.00;0.00;;;16.40;79.50;;;;;;5074504;28;20146;-66
2022/05/20 07:58:20;;;;;;;0.00;0.00;;;16.50;79.00;;;;;;5084992;28;20060;-67
2022/05/20 08:00:46;;;;;;;0.00;0.00;;;16.50;78.30;;;;;;5073634;28;20036;-67
2022/05/20 08:04:52;;;;;;;0.00;0.00;;;16.50;78.10;;;;;;5078311;28;20405;-67
2022/05/20 08:05:58;;;;;;;0.00;0.00;;;16.80;77.20;;;;;;5077697;28;20044;-67
2022/05/20 08:08:24;;;;;;;0.00;0.00;;;16.80;75.90;;;;;;5078513;28;20824;-68
2022/05/20 08:10:49;;;;;;;0.00;0.00;;;16.80;75.00;;;;;;5067727;28;20037;-68
2022/05/20 08:13:17;;;;;;;0.00;0.00;;;16.70;74.00;;;;;;5086166;28;20049;-66
2022/05/20 08:15:42;;;;;;;0.00;0.00;;;16.70;74.40;;;;;;5070059;28;20049;-66
2022/05/20 08:18:08;;;;;;;0.00;0.00;;;16.70;74.80;;;;;;5079774;28;20040;-66
2022/05/20 08:20:34;;;;;;;0.00;0.00;;;16.80;75.80;;;;;;5075160;28;20047;-67
2022/05/20 08:23:00;;;;;;;0.00;0.00;;;16.80;75.90;;;;;;5088952;28;20127;-66
2022/05/20 08:25:26;;;;;;;0.00;0.00;;;16.90;75.20;;;;;;5077523;28;20052;-66
2022/05/20 08:27:52;;;;;;;0.00;0.00;;;16.90;74.50;;;;;;5080719;28;20401;-67
2022/05/20 08:30:25;;;;;;;1.65;1.45;;;16.90;74.20;;;;;;5086959;28;20039;-66
2022/05/20 08:32:50;;;;;;;0.00;0.00;;;17.00;75.30;;;;;;5068826;28;20094;-66
2022/05/20 08:35:16;;;;;;;0.00;0.00;;;17.10;75.40;;;;;;5087609;28;20040;-66
2022/05/20 08:37:44;;;;;;;0.00;0.00;;;17.00;73.90;;;;;;5082029;28;20111;-66
2022/05/20 08:40:20;;;;;;;0.00;0.00;;;17.00;74.10;;;;;;5069676;28;20048;-67
2022/05/20 08:42:46;;;;;;;0.00;0.00;;;17.10;73.90;;;;;;5074766;28;20049;-67
2022/05/20 08:45:15;;;;;;;0.00;0.00;;;17.10;74.10;;;;;;5081356;28;20048;-67
2022/05/20 08:47:44;;;;;;;0.00;0.00;;;17.20;74.10;;;;;;5081539;28;20121;-67
2022/05/20 08:50:14;;;;;;;0.00;0.00;;;17.30;74.30;;;;;;5080963;28;21429;-68
2022/05/20 08:52:41;;;;;;;0.00;0.00;;;17.30;73.90;;;;;;5074472;28;20051;-67
2022/05/20 08:55:08;;;;;;;0.10;0.10;;;17.40;73.20;;;;;;5082371;28;20036;-67
2022/05/20 08:57:34;;;;;;;0.00;0.00;;;17.40;73.30;;;;;;5083561;28;20169;-67
2022/05/20 09:00:19;;;;;;;0.00;0.00;;;17.40;72.40;;;;;;5089087;28;20618;-67
2022/05/20 09:02:44;;;;;;;0.00;0.00;;;17.40;71.80;;;;;;5087565;28;20086;-67
2022/05/20 09:05:17;;;;;;;0.00;0.00;;;17.40;71.70;;;;;;5076578;28;20083;-67
2022/05/20 09:08:05;;;;;;;0.00;0.00;;;17.50;73.00;;;;;;5071644;28;20501;-67
2022/05/20 09:10:38;;;;;;;0.00;0.00;;;17.50;72.30;;;;;;5070409;28;20036;-67
2022/05/20 09:16:24;;;;;;;0.00;0.00;;;17.70;73.20;;;;;;5074105;28;20070;-70
2022/05/20 09:19:07;;;;;;;0.00;0.00;;;18.10;75.60;;;;;;5086551;28;20954;-69
2022/05/20 09:21:42;;;;;;;0.00;0.00;;;18.40;74.60;;;;;;5093891;28;20040;-70
2022/05/20 09:24:14;;;;;;;0.00;0.00;;;18.60;72.00;;;;;;5084163;28;20083;-69
2022/05/20 09:26:51;;;;;;;0.00;0.00;;;18.90;71.20;;;;;;5088985;28;20047;-72
2022/05/20 09:29:46;;;;;;;0.10;0.10;;;19.10;70.60;;;;;;5086570;28;20158;-67
2022/05/20 09:32:25;;;;;;;0.00;0.00;;;19.10;68.60;;;;;;5069180;28;20405;-67
2022/05/20 09:35:06;;;;;;;0.00;0.00;;;19.00;68.80;;;;;;5082527;28;20097;-75
2022/05/20 09:37:34;;;;;;;0.17;0.17;;;18.90;69.10;;;;;;5086195;28;20086;-64
2022/05/20 09:40:24;;;;;;;0.00;0.00;;;19.00;69.10;;;;;;5092884;28;20080;-77
2022/05/20 09:43:02;;;;;;;0.00;0.00;;;19.00;69.20;;;;;;5091024;28;20554;-74
2022/05/20 09:45:34;;;;;;;0.00;0.00;;;19.10;68.10;;;;;;5089256;28;20476;-72
2022/05/20 09:48:00;;;;;;;0.00;0.00;;;19.20;67.40;;;;;;5091511;28;20404;-72
2022/05/20 09:50:34;;;;;;;0.00;0.00;;;19.40;66.80;;;;;;5085776;28;20521;-72
2022/05/20 09:53:04;;;;;;;0.00;0.00;;;19.50;66.60;;;;;;5074933;28;20040;-72
2022/05/20 09:55:36;;;;;;;0.00;0.00;;;19.50;65.90;;;;;;5081914;28;20124;-73
2022/05/20 09:58:27;;;;;;;0.00;0.00;;;19.50;66.40;;;;;;5086090;28;20074;-72
2022/05/20 10:00:59;;;;;;;0.00;0.00;;;19.50;65.90;;;;;;5080811;28;20055;-73
2022/05/20 10:03:32;;;;;;;0.00;0.00;;;19.50;66.30;;;;;;5083411;28;20094;-73
2022/05/20 10:06:35;;;;;;;0.38;0.32;;;19.40;66.30;;;;;;5082451;28;20050;-72
2022/05/20 10:09:15;;;;;;;0.00;0.00;;;19.40;66.10;;;;;;5081900;28;20076;-73
2022/05/20 10:12:18;;;;;;;0.00;0.00;;;19.30;65.80;;;;;;5087109;28;20048;-73
2022/05/20 10:15:24;;;;;;;0.10;0.10;;;19.40;65.90;;;;;;5070975;28;20444;-72
2022/05/20 10:18:22;;;;;;;0.00;0.00;;;19.40;65.70;;;;;;5036174;28;20087;-72
2022/05/20 10:20:58;;;;;;;0.00;0.00;;;19.40;64.80;;;;;;5086319;28;20047;-71
2022/05/20 10:23:42;;;;;;;0.00;0.00;;;19.40;65.50;;;;;;5076945;28;20047;-71
2022/05/20 10:26:24;;;;;;;0.00;0.00;;;19.40;65.00;;;;;;5080313;28;20093;-72
2022/05/20 10:34:45;;;;;;;0.00;0.00;;;19.30;65.40;;;;;;5086107;28;20532;-70
2022/05/20 10:37:25;;;;;;;0.10;0.10;;;19.40;65.10;;;;;;5090951;28;20047;-68
2022/05/20 10:40:21;;;;;;;0.00;0.00;;;19.40;65.10;;;;;;5071594;28;20048;-69
2022/05/20 10:43:00;;;;;;;0.00;0.00;;;19.50;64.60;;;;;;5090502;28;20051;-70
2022/05/20 10:48:48;;;;;;;0.00;0.00;;;19.60;64.00;;;;;;5080667;28;20059;-72
2022/05/20 10:51:50;;;;;;;0.00;0.00;;;19.60;64.00;;;;;;5073898;28;20049;-72
2022/05/20 10:54:33;;;;;;;0.00;0.00;;;19.80;64.10;;;;;;5070340;28;20049;-64
2022/05/20 10:57:18;;;;;;;0.00;0.00;;;19.70;64.10;;;;;;5082397;28;20083;-64
2022/05/20 10:59:59;;;;;;;0.00;0.00;;;19.60;64.50;;;;;;5090472;28;20055;-65
2022/05/20 11:03:03;;;;;;;0.00;0.00;;;19.60;64.10;;;;;;5090237;28;20036;-64
2022/05/20 11:05:40;;;;;;;0.00;0.00;;;19.50;64.10;;;;;;5070526;28;20129;-63
2022/05/20 11:08:43;;;;;;;0.00;0.00;;;19.50;66.00;;;;;;5076818;28;20045;-64
2022/05/20 11:11:34;;;;;;;0.00;0.00;;;19.40;66.60;;;;;;5081742;28;20416;-64
2022/05/20 11:14:36;;;;;;;0.00;0.00;;;19.40;66.30;;;;;;5090081;28;20080;-65
2022/05/20 11:17:31;;;;;;;0.00;0.00;;;19.40;66.60;;;;;;5082768;28;20389;-65
2022/05/20 11:20:15;;;;;;;0.00;0.00;;;19.30;66.00;;;;;;5086117;28;20120;-66
2022/05/20 11:23:08;;;;;;;0.00;0.00;;;19.50;67.00;;;;;;5070999;28;20044;-66
2022/05/20 11:26:44;;;;;;;0.00;0.00;;;19.40;66.60;;;;;;5071974;28;20079;-66
2022/05/20 11:29:40;;;;;;;0.00;0.00;;;19.50;65.90;;;;;;5034558;28;20915;-65
2022/05/20 11:32:09;;;;;;;0.00;0.00;;;19.50;67.40;;;;;;5047164;28;20130;-68
2022/05/20 11:35:02;;;;;;;0.10;0.10;;;19.50;66.50;;;;;;5069584;28;20079;-67
2022/05/20 11:38:04;;;;;;;0.00;0.00;;;19.50;68.00;;;;;;5071778;28;20121;-66
2022/05/20 11:40:36;;;;;;;;;;;19.50;68.70;;;;;;5069829;28;20155;-71
2022/05/20 11:44:00;;;;;;;0.32;0.32;;;19.50;65.20;;;;;;5080670;28;19927;-67
2022/05/20 11:46:31;;;;;;;0.30;0.30;;;19.50;66.20;;;;;;5052152;28;20124;-69
2022/05/20 11:49:15;;;;;;;0.00;0.00;;;19.50;66.50;;;;;;5052445;28;20044;-68
2022/05/20 11:52:12;;;;;;;0.00;0.00;;;19.50;63.50;;;;;;5069276;28;20466;-67
2022/05/20 11:54:53;;;;;;;0.00;0.00;;;19.60;64.80;;;;;;5069288;28;20056;-67
2022/05/20 11:57:26;;;;;;;0.00;0.00;;;19.60;65.60;;;;;;5069875;28;20048;-67
2022/05/20 12:00:06;;;;;;;0.00;0.00;;;19.50;64.10;;;;;;5069127;28;20271;-67
2022/05/20 12:02:41;;;;;;;0.20;0.20;;;19.50;66.10;;;;;;5069896;28;20515;-67
2022/05/20 12:05:10;;;;;;;0.00;0.00;;;19.50;64.50;;;;;;5069522;28;20091;-67
2022/05/20 12:07:37;;;;;;;0.00;0.00;;;19.50;63.10;;;;;;5069168;28;20052;-67
2022/05/20 12:10:36;;;;;;;0.00;0.00;;;19.50;63.50;;;;;;5069660;28;20414;-67
2022/05/20 12:13:19;;;;;;;0.00;0.00;;;19.40;63.40;;;;;;5069671;28;20401;-67
2022/05/20 12:16:08;;;;;;;0.00;0.00;;;19.30;63.30;;;;;;5069050;28;20110;-67
2022/05/20 12:24:35;;;;;;;0.00;0.00;;;19.30;62.90;;;;;;5086128;28;20052;-67
2022/05/20 12:27:02;;;;;;;0.00;0.00;;;19.30;62.50;;;;;;5088264;28;20047;-66
2022/05/20 12:29:37;;;;;;;0.00;0.00;;;19.20;63.90;;;;;;5089424;28;20131;-66
2022/05/20 12:32:15;;;;;;;0.00;0.00;;;19.20;62.80;;;;;;5088887;28;20466;-67
2022/05/20 12:34:41;;;;;;;0.00;0.00;;;19.20;63.90;;;;;;5089364;28;20040;-66
2022/05/20 12:37:07;;;;;;;0.00;0.00;;;19.20;63.70;;;;;;5089258;28;20044;-66
2022/05/20 12:39:48;;;;;;;0.00;0.00;;;19.30;65.60;;;;;;5089307;28;20028;-66
2022/05/20 12:42:45;;;;;;;0.00;0.00;;;19.30;65.40;;;;;;5089263;28;20404;-67
2022/05/20 12:45:11;;;;;;;0.00;0.00;;;19.40;66.10;;;;;;5080283;28;20128;-67
2022/05/20 12:47:38;;;;;;;0.90;0.75;;;19.50;64.60;;;;;;5086918;28;20131;-66
2022/05/20 12:50:21;;;;;;;0.00;0.00;;;19.50;65.00;;;;;;5074830;28;20087;-67
2022/05/20 12:52:49;;;;;;;0.00;0.00;;;19.60;64.40;;;;;;5088727;28;20037;-66
2022/05/20 12:55:27;;;;;;;0.00;0.00;;;19.60;64.10;;;;;;5073663;28;20120;-67
2022/05/20 12:58:04;;;;;;;0.00;0.00;;;19.50;63.00;;;;;;5069032;28;20052;-67
2022/05/20 13:00:51;;;;;;;0.00;0.00;;;19.40;63.00;;;;;;5069144;28;20045;-67
2022/05/20 13:03:34;;;;;;;0.00;0.00;;;19.40;63.00;;;;;;5068648;28;20430;-67
2022/05/20 13:06:03;;;;;;;0.00;0.00;;;19.20;62.70;;;;;;5072737;28;20044;-68
2022/05/20 13:08:33;;;;;;;0.00;0.00;;;19.10;63.10;;;;;;5092087;28;20512;-67
2022/05/20 13:11:09;;;;;;;0.00;0.00;;;19.10;63.80;;;;;;5092838;28;20044;-67
2022/05/20 13:13:36;;;;;;;0.00;0.00;;;19.00;63.40;;;;;;5082747;28;20124;-67
2022/05/20 13:16:04;;;;;;;0.00;0.00;;;19.00;63.70;;;;;;5086764;28;20052;-67
2022/05/20 13:18:33;;;;;;;0.00;0.00;;;19.00;63.30;;;;;;5079758;28;20494;-67
2022/05/20 13:21:03;;;;;;;0.00;0.00;;;18.90;63.40;;;;;;5072163;28;20033;-67
2022/05/20 13:23:34;;;;;;;0.00;0.00;;;18.80;61.90;;;;;;5073691;28;20526;-68
2022/05/20 13:26:01;;;;;;;0.00;0.00;;;18.80;62.50;;;;;;5072526;28;20044;-67
2022/05/20 13:28:33;;;;;;;0.00;0.00;;;18.80;64.50;;;;;;5071813;28;20051;-67
2022/05/20 13:31:11;;;;;;;0.00;0.00;;;18.80;63.10;;;;;;5072090;28;20549;-67
2022/05/20 13:33:40;;;;;;;0.00;0.00;;;18.80;64.00;;;;;;5086379;28;20437;-67
2022/05/20 13:36:11;;;;;;;0.00;0.00;;;18.60;62.80;;;;;;5092813;28;20114;-66
2022/05/20 13:38:42;;;;;;;0.00;0.00;;;18.50;61.20;;;;;;5082276;28;20405;-68
2022/05/20 13:41:10;;;;;;;0.00;0.00;;;18.40;62.10;;;;;;5073808;28;20038;-67
2022/05/20 13:43:38;;;;;;;0.00;0.00;;;18.30;63.50;;;;;;5073063;28;20082;-67
2022/05/20 13:49:13;;;;;;;0.00;0.00;;;18.30;67.90;;;;;;5078564;28;20045;-67
2022/05/20 13:51:45;;;;;;;0.10;0.10;;;18.20;67.90;;;;;;5083519;28;20044;-67
2022/05/20 13:54:16;;;;;;;0.00;0.00;;;18.00;67.40;;;;;;5078208;28;20604;-67
2022/05/20 13:56:46;;;;;;;0.00;0.00;;;17.80;68.20;;;;;;5091131;28;20062;-66